createdAt,value
2022-08-16T00:01:16.015Z,16.47
2022-08-16T00:03:42.706Z,16.41
2022-08-16T00:06:10.119Z,16.38
2022-08-16T00:08:38.150Z,16.36
2022-08-16T00:11:08.550Z,16.38
2022-08-16T00:13:43.545Z,16.29
2022-08-16T00:17:01.534Z,16.27
2022-08-16T00:19:08.254Z,16.24
2022-08-16T00:21:35.549Z,16.25
2022-08-16T00:24:04.644Z,16.22
2022-08-16T00:26:36.007Z,16.19
2022-08-16T00:29:11.834Z,16.13
2022-08-16T00:31:58.638Z,16.07
2022-08-16T00:34:52.280Z,16.08
2022-08-16T00:37:16.715Z,16.09
2022-08-16T00:39:44.894Z,16.09
2022-08-16T00:42:12.045Z,16.06
2022-08-16T00:44:41.742Z,16.04
2022-08-16T00:47:16.355Z,16.02
2022-08-16T00:49:44.560Z,15.99
2022-08-16T00:52:29.631Z,15.98
2022-08-16T00:54:57.395Z,15.96
2022-08-16T00:57:24.224Z,15.92
2022-08-16T00:59:54.608Z,15.91
2022-08-16T01:02:31.319Z,15.90
2022-08-16T01:05:09.538Z,15.88
2022-08-16T01:07:51.020Z,15.84
2022-08-16T01:10:32.806Z,15.78
2022-08-16T01:13:15.150Z,15.72
2022-08-16T01:15:47.411Z,15.70
2022-08-16T01:18:39.007Z,15.71
2022-08-16T01:21:22.443Z,15.63
2022-08-16T01:24:03.780Z,15.64
2022-08-16T01:26:35.545Z,15.66
2022-08-16T01:29:10.078Z,15.68
2022-08-16T01:31:42.696Z,15.68
2022-08-16T01:34:25.024Z,15.63
2022-08-16T01:37:03.087Z,15.65
2022-08-16T01:39:30.435Z,15.64
2022-08-16T01:42:04.659Z,15.63
2022-08-16T01:44:39.977Z,15.55
2022-08-16T01:47:07.791Z,15.57
2022-08-16T01:50:40.614Z,15.60
2022-08-16T01:52:30.159Z,15.65
2022-08-16T01:54:58.088Z,15.60
2022-08-16T01:57:27.070Z,15.59
2022-08-16T01:59:54.526Z,15.60
2022-08-16T02:02:27.413Z,15.61
2022-08-16T02:04:56.327Z,15.57
2022-08-16T02:07:24.457Z,15.57
2022-08-16T02:09:57.023Z,15.57
2022-08-16T02:12:51.724Z,15.56
2022-08-16T02:15:13.354Z,15.56
2022-08-16T02:17:40.830Z,15.56
2022-08-16T02:20:11.655Z,15.59
2022-08-16T02:22:39.085Z,15.61
2022-08-16T02:25:10.856Z,15.61
2022-08-16T02:27:41.047Z,15.59
2022-08-16T02:30:36.976Z,15.58
2022-08-16T02:33:04.604Z,15.57
2022-08-16T02:35:33.386Z,15.55
2022-08-16T02:38:08.687Z,15.54
2022-08-16T02:40:37.458Z,15.53
2022-08-16T02:43:04.391Z,15.52
2022-08-16T02:45:31.952Z,15.51
2022-08-16T02:48:01.881Z,15.50
2022-08-16T02:50:55.401Z,15.48
2022-08-16T02:53:34.741Z,15.47
2022-08-16T02:56:02.287Z,15.46
2022-08-16T02:58:32.711Z,15.44
2022-08-16T03:01:00.343Z,15.46
2022-08-16T03:04:24.799Z,15.49
2022-08-16T03:06:39.043Z,15.51
2022-08-16T03:09:06.005Z,15.51
2022-08-16T03:11:35.288Z,15.51
2022-08-16T03:14:07.349Z,15.47
2022-08-16T03:16:39.123Z,15.44
2022-08-16T03:19:22.375Z,15.42
2022-08-16T03:21:51.788Z,15.37
2022-08-16T03:24:28.859Z,15.35
2022-08-16T03:27:02.761Z,15.29
2022-08-16T03:29:33.017Z,15.28
2022-08-16T03:32:01.750Z,15.25
2022-08-16T03:34:30.941Z,15.21
2022-08-16T03:36:58.458Z,15.15
2022-08-16T03:39:25.274Z,15.15
2022-08-16T03:41:59.307Z,15.14
2022-08-16T03:44:44.615Z,15.13
2022-08-16T03:47:19.065Z,15.10
2022-08-16T03:49:51.493Z,15.09
2022-08-16T03:52:20.292Z,15.06
2022-08-16T03:54:53.683Z,15.06
2022-08-16T03:57:24.823Z,15.02
2022-08-16T03:59:59.521Z,15.02
2022-08-16T04:02:41.259Z,15.04
2022-08-16T04:05:09.096Z,14.99
2022-08-16T04:07:36.407Z,14.97
2022-08-16T04:10:35.940Z,14.90
2022-08-16T04:13:00.572Z,14.90
2022-08-16T04:15:31.190Z,14.90
2022-08-16T04:18:02.068Z,14.92
2022-08-16T04:20:33.958Z,14.97
2022-08-16T04:23:03.634Z,15.04
2022-08-16T04:25:33.010Z,15.06
2022-08-16T04:28:29.205Z,15.07
2022-08-16T04:30:46.751Z,15.10
2022-08-16T04:33:14.651Z,15.16
2022-08-16T04:35:41.643Z,15.22
2022-08-16T04:38:10.546Z,15.24
2022-08-16T04:40:38.535Z,15.28
2022-08-16T04:43:05.929Z,15.32
2022-08-16T04:45:36.155Z,15.33
2022-08-16T04:48:04.342Z,15.36
2022-08-16T04:50:31.336Z,15.37
2022-08-16T04:52:59.278Z,15.36
2022-08-16T04:55:31.846Z,15.37
2022-08-16T04:58:44.331Z,15.38
2022-08-16T05:00:53.295Z,15.39
2022-08-16T05:03:20.845Z,15.42
2022-08-16T05:05:58.932Z,15.43
2022-08-16T05:08:30.477Z,15.44
2022-08-16T05:11:05.786Z,15.48
2022-08-16T05:13:41.811Z,15.54
2022-08-16T05:16:16.679Z,15.59
2022-08-16T05:18:48.499Z,15.61
2022-08-16T05:21:15.201Z,15.68
2022-08-16T05:23:45.488Z,15.72
2022-08-16T05:26:22.488Z,15.76
2022-08-16T05:28:55.463Z,15.79
2022-08-16T05:31:29.530Z,15.91
2022-08-16T05:33:58.786Z,16.27
2022-08-16T05:36:34.412Z,16.66
2022-08-16T05:39:09.387Z,17.04
2022-08-16T05:41:45.339Z,17.39
2022-08-16T05:44:22.840Z,17.70
2022-08-16T05:46:56.950Z,18.04
2022-08-16T05:49:38.666Z,18.19
2022-08-16T05:52:11.314Z,18.41
2022-08-16T05:54:46.708Z,18.53
2022-08-16T05:57:15.568Z,18.79
2022-08-16T05:59:42.313Z,18.85
2022-08-16T06:02:09.970Z,18.99
2022-08-16T06:04:37.663Z,19.13
2022-08-16T06:07:10.417Z,19.34
2022-08-16T06:09:53.543Z,19.55
2022-08-16T06:12:27.218Z,19.78
2022-08-16T06:15:04.488Z,20.03
2022-08-16T06:17:42.712Z,20.31
2022-08-16T06:20:23.812Z,20.60
2022-08-16T06:22:58.537Z,20.94
2022-08-16T06:25:35.890Z,21.17
2022-08-16T06:28:08.439Z,21.34
2022-08-16T06:30:36.538Z,21.54
2022-08-16T06:33:12.489Z,21.69
2022-08-16T06:35:41.451Z,21.89
2022-08-16T06:38:32.611Z,22.07
2022-08-16T06:40:56.434Z,22.23
2022-08-16T06:43:27.285Z,22.35
2022-08-16T06:45:54.664Z,22.43
2022-08-16T06:48:33.010Z,22.46
2022-08-16T06:51:03.237Z,22.36
2022-08-16T06:53:33.838Z,22.21
2022-08-16T06:56:06.086Z,22.17
2022-08-16T06:58:41.690Z,22.06
2022-08-16T07:01:09.798Z,21.94
2022-08-16T07:03:55.687Z,21.82
2022-08-16T07:06:26.450Z,21.80
2022-08-16T07:08:54.406Z,21.83
2022-08-16T07:11:45.879Z,21.86
2022-08-16T07:14:23.599Z,21.82
2022-08-16T07:16:53.965Z,21.76
2022-08-16T07:19:20.629Z,21.64
2022-08-16T07:21:59.337Z,21.65
2022-08-16T07:24:30.910Z,21.87
2022-08-16T07:27:01.556Z,22.17
2022-08-16T07:29:31.387Z,22.32
2022-08-16T07:32:00.653Z,22.54
2022-08-16T07:34:35.009Z,22.75
2022-08-16T07:37:10.330Z,22.83
2022-08-16T07:39:43.068Z,22.79
2022-08-16T07:42:25.925Z,22.68
2022-08-16T07:44:58.614Z,22.53
2022-08-16T07:47:31.498Z,22.43
2022-08-16T07:50:00.262Z,22.32
2022-08-16T07:52:32.800Z,22.24
2022-08-16T07:55:00.020Z,22.16
2022-08-16T07:57:26.976Z,22.27
2022-08-16T07:59:57.178Z,22.22
2022-08-16T08:02:27.326Z,22.43
2022-08-16T08:04:56.096Z,22.50
2022-08-16T08:07:27.668Z,22.50
2022-08-16T08:09:55.858Z,22.49
2022-08-16T08:12:31.213Z,22.52
2022-08-16T08:14:59.993Z,22.54
2022-08-16T08:17:42.651Z,22.55
2022-08-16T08:20:26.227Z,22.67
2022-08-16T08:23:00.067Z,22.68
2022-08-16T08:25:54.134Z,22.95
2022-08-16T08:28:17.767Z,23.12
2022-08-16T08:31:00.700Z,23.13
2022-08-16T08:33:28.764Z,23.18
2022-08-16T08:36:01.157Z,23.23
2022-08-16T08:38:45.009Z,23.28
2022-08-16T08:41:13.483Z,23.32
2022-08-16T08:43:42.981Z,23.39
2022-08-16T08:46:12.478Z,23.36
2022-08-16T08:48:59.486Z,23.38
2022-08-16T08:51:35.589Z,23.47
2022-08-16T08:54:06.829Z,23.33
2022-08-16T08:56:36.364Z,23.29
2022-08-16T08:59:16.441Z,23.32
2022-08-16T09:01:56.718Z,23.27
2022-08-16T09:04:27.206Z,23.23
2022-08-16T09:06:55.310Z,23.28
2022-08-16T09:09:23.528Z,23.31
2022-08-16T09:12:04.220Z,23.33
2022-08-16T09:14:35.676Z,23.36
2022-08-16T09:17:11.743Z,23.51
2022-08-16T09:19:41.284Z,23.68
2022-08-16T09:22:20.742Z,24.10
2022-08-16T09:24:53.422Z,24.47
2022-08-16T09:27:23.470Z,24.74
2022-08-16T09:29:59.788Z,24.85
2022-08-16T09:32:30.459Z,25.05
2022-08-16T09:34:59.358Z,25.35
2022-08-16T09:37:29.406Z,25.31
2022-08-16T09:40:00.705Z,25.36
2022-08-16T09:42:30.497Z,25.68
2022-08-16T09:45:18.334Z,25.74
2022-08-16T09:47:56.538Z,25.87
2022-08-16T09:50:37.236Z,25.87
2022-08-16T09:53:15.192Z,25.85
2022-08-16T09:55:49.488Z,25.67
2022-08-16T09:58:41.319Z,25.79
2022-08-16T10:01:11.175Z,25.61
2022-08-16T10:03:38.487Z,25.48
2022-08-16T10:06:33.474Z,25.26
2022-08-16T10:09:06.821Z,25.48
2022-08-16T10:11:55.252Z,25.77
2022-08-16T10:14:24.580Z,26.10
2022-08-16T10:16:59.875Z,26.16
2022-08-16T10:19:29.616Z,26.16
2022-08-16T10:21:59.861Z,26.28
2022-08-16T10:24:32.760Z,26.60
2022-08-16T10:27:26.095Z,26.68
2022-08-16T10:30:00.646Z,26.68
2022-08-16T10:32:34.344Z,26.52
2022-08-16T10:35:03.432Z,26.55
2022-08-16T10:37:32.822Z,26.73
2022-08-16T10:40:04.811Z,26.95
2022-08-16T10:42:31.527Z,26.91
2022-08-16T10:44:58.263Z,26.98
2022-08-16T10:47:26.450Z,27.18
2022-08-16T10:49:55.948Z,27.30
2022-08-16T10:52:24.322Z,27.25
2022-08-16T10:54:59.223Z,27.27
2022-08-16T10:57:32.968Z,27.71
2022-08-16T11:00:01.294Z,27.86
2022-08-16T11:03:00.317Z,28.24
2022-08-16T11:05:17.563Z,28.17
2022-08-16T11:07:52.257Z,28.13
2022-08-16T11:19:06.088Z,27.25
2022-08-16T11:24:39.566Z,27.05
2022-08-16T11:27:23.171Z,26.80
2022-08-16T11:29:55.294Z,26.77
2022-08-16T11:32:29.820Z,26.95
2022-08-16T11:35:16.101Z,26.89
2022-08-16T11:38:23.284Z,26.89
2022-08-16T11:40:44.187Z,26.83
2022-08-16T11:43:12.939Z,26.96
2022-08-16T11:45:43.672Z,27.08
2022-08-16T11:48:20.474Z,27.51
2022-08-16T11:50:47.923Z,27.58
2022-08-16T11:53:15.238Z,27.81
2022-08-16T11:55:44.005Z,27.85
2022-08-16T11:58:12.149Z,28.06
2022-08-16T12:00:50.427Z,28.13
2022-08-16T12:03:19.299Z,28.20
2022-08-16T12:05:46.857Z,27.81
2022-08-16T12:08:21.024Z,27.94
2022-08-16T12:10:54.346Z,28.09
2022-08-16T12:13:26.399Z,27.92
2022-08-16T12:15:53.227Z,27.85
2022-08-16T12:18:20.551Z,27.76
2022-08-16T12:20:48.004Z,27.39
2022-08-16T12:23:17.312Z,27.50
2022-08-16T12:25:45.122Z,27.58
2022-08-16T12:28:12.909Z,27.71
2022-08-16T12:30:42.893Z,27.65
2022-08-16T12:33:12.428Z,27.53
2022-08-16T12:35:40.409Z,27.43
2022-08-16T12:38:38.262Z,26.99
2022-08-16T12:40:57.106Z,26.98
2022-08-16T12:43:25.599Z,26.96
2022-08-16T12:45:55.232Z,26.91
2022-08-16T12:48:44.881Z,26.81
2022-08-16T12:51:22.324Z,26.77
2022-08-16T12:53:52.735Z,26.76
2022-08-16T12:56:25.346Z,26.66
2022-08-16T12:58:53.399Z,26.60
2022-08-16T13:01:27.574Z,26.53
2022-08-16T13:04:12.021Z,26.49
2022-08-16T13:06:43.432Z,26.44
2022-08-16T13:09:26.342Z,26.34
2022-08-16T13:12:21.106Z,26.17
2022-08-16T13:14:50.144Z,26.10
2022-08-16T13:17:24.019Z,26.10
2022-08-16T13:20:11.504Z,26.12
2022-08-16T13:22:50.452Z,26.14
2022-08-16T13:25:21.137Z,26.16
2022-08-16T13:28:15.074Z,26.08
2022-08-16T13:30:41.719Z,26.13
2022-08-16T13:33:12.549Z,26.09
2022-08-16T13:35:45.926Z,26.05
2022-08-16T13:38:24.836Z,26.19
2022-08-16T13:40:56.121Z,26.25
2022-08-16T13:43:26.432Z,26.35
2022-08-16T13:45:55.449Z,26.44
2022-08-16T13:48:24.840Z,26.50
2022-08-16T13:51:00.581Z,26.65
2022-08-16T13:53:30.948Z,26.62
2022-08-16T13:55:59.612Z,26.71
2022-08-16T13:58:34.817Z,26.63
2022-08-16T14:01:09.878Z,26.59
2022-08-16T14:03:37.499Z,26.58
2022-08-16T14:06:04.347Z,26.47
2022-08-16T14:08:31.206Z,26.33
2022-08-16T14:10:57.923Z,26.23
2022-08-16T14:13:24.675Z,26.01
2022-08-16T14:15:51.693Z,25.80
2022-08-16T14:18:20.418Z,25.69
2022-08-16T14:20:58.602Z,25.65
2022-08-16T14:23:25.328Z,25.58
2022-08-16T14:25:54.024Z,25.55
2022-08-16T14:28:23.404Z,25.52
2022-08-16T14:30:50.939Z,25.45
2022-08-16T14:33:19.035Z,25.41
2022-08-16T14:35:48.778Z,25.35
2022-08-16T14:38:18.898Z,25.27
2022-08-16T14:40:51.083Z,25.21
2022-08-16T14:43:22.119Z,25.16
2022-08-16T14:45:50.879Z,25.13
2022-08-16T14:48:25.722Z,25.09
2022-08-16T14:50:54.071Z,25.01
2022-08-16T14:53:20.873Z,24.98
2022-08-16T14:55:48.573Z,24.97
2022-08-16T14:58:19.532Z,24.96
2022-08-16T15:00:50.130Z,24.91
2022-08-16T15:03:18.354Z,24.80
2022-08-16T15:05:48.481Z,24.66
2022-08-16T15:08:17.721Z,24.58
2022-08-16T15:10:47.116Z,24.47
2022-08-16T15:13:14.986Z,24.35
2022-08-16T15:15:43.425Z,24.28
2022-08-16T15:18:11.933Z,24.21
2022-08-16T15:20:39.102Z,24.16
2022-08-16T15:23:09.076Z,24.13
2022-08-16T15:25:58.637Z,24.04
2022-08-16T15:28:32.622Z,23.95
2022-08-16T15:31:02.994Z,23.86
2022-08-16T15:33:32.251Z,23.81
2022-08-16T15:35:59.623Z,23.80
2022-08-16T15:38:54.581Z,23.78
2022-08-16T15:41:47.979Z,23.79
2022-08-16T15:44:22.547Z,23.78
2022-08-16T15:46:58.566Z,23.77
2022-08-16T15:49:32.924Z,23.74
2022-08-16T15:52:10.525Z,23.68
2022-08-16T15:54:51.395Z,23.67
2022-08-16T15:57:22.674Z,23.63
2022-08-16T15:59:52.738Z,23.59
2022-08-16T16:02:29.526Z,23.57
2022-08-16T16:05:02.028Z,23.52
2022-08-16T16:07:31.098Z,23.47
2022-08-16T16:09:59.606Z,23.44
2022-08-16T16:12:51.403Z,23.41
2022-08-16T16:15:22.844Z,23.37
2022-08-16T16:17:52.567Z,23.34
2022-08-16T16:20:24.433Z,23.30
2022-08-16T16:22:56.686Z,23.27
2022-08-16T16:25:25.083Z,23.21
2022-08-16T16:27:55.973Z,23.16
2022-08-16T16:30:33.346Z,23.10
2022-08-16T16:33:20.494Z,23.03
2022-08-16T16:35:55.663Z,22.96
2022-08-16T16:38:27.229Z,22.92
2022-08-16T16:40:54.587Z,22.84
2022-08-16T16:43:25.476Z,22.79
2022-08-16T16:45:52.869Z,22.75
2022-08-16T16:48:19.648Z,22.69
2022-08-16T16:50:46.456Z,22.66
2022-08-16T16:53:17.640Z,22.57
2022-08-16T16:55:47.747Z,22.51
2022-08-16T16:58:38.803Z,22.48
2022-08-16T17:01:08.271Z,22.39
2022-08-16T17:03:35.648Z,22.36
2022-08-16T17:06:09.189Z,22.34
2022-08-16T17:08:41.373Z,22.30
2022-08-16T17:11:10.064Z,22.23
2022-08-16T17:13:38.568Z,22.14
2022-08-16T17:16:06.284Z,22.04
2022-08-16T17:19:14.903Z,21.98
2022-08-16T17:21:23.642Z,21.92
2022-08-16T17:23:58.607Z,21.88
2022-08-16T17:26:30.199Z,21.78
2022-08-16T17:29:02.121Z,21.68
2022-08-16T17:31:47.144Z,21.67
2022-08-16T17:34:30.259Z,21.60
2022-08-16T17:37:00.583Z,21.51
2022-08-16T17:39:33.636Z,21.45
2022-08-16T17:42:08.219Z,21.34
2022-08-16T17:44:35.090Z,21.17
2022-08-16T17:47:01.817Z,21.13
2022-08-16T17:49:28.513Z,20.98
2022-08-16T17:51:55.315Z,20.88
2022-08-16T17:54:30.424Z,20.76
2022-08-16T17:57:01.413Z,20.66
2022-08-16T17:59:29.659Z,20.59
2022-08-16T18:01:57.744Z,20.59
2022-08-16T18:04:49.120Z,20.48
2022-08-16T18:07:12.289Z,20.41
2022-08-16T18:09:41.947Z,20.34
2022-08-16T18:12:45.326Z,20.29
2022-08-16T18:15:09.593Z,20.25
2022-08-16T18:17:36.318Z,20.18
2022-08-16T18:20:28.549Z,20.15
2022-08-16T18:23:01.700Z,20.13
2022-08-16T18:25:28.660Z,20.06
2022-08-16T18:27:55.418Z,19.99
2022-08-16T18:30:22.088Z,19.93
2022-08-16T18:32:50.288Z,19.89
2022-08-16T18:35:18.272Z,19.85
2022-08-16T18:37:45.109Z,19.78
2022-08-16T18:40:13.075Z,19.74
2022-08-16T18:42:39.916Z,19.73
2022-08-16T18:45:07.581Z,19.72
2022-08-16T18:47:34.338Z,19.66
2022-08-16T18:50:01.026Z,19.63
2022-08-16T18:52:27.784Z,19.59
2022-08-16T18:55:01.818Z,19.55
2022-08-16T18:57:30.063Z,19.52
2022-08-16T18:59:56.771Z,19.52
2022-08-16T19:02:56.115Z,19.48
2022-08-16T19:05:25.417Z,19.47
2022-08-16T19:07:52.380Z,19.46
2022-08-16T19:10:19.402Z,19.41
2022-08-16T19:12:46.128Z,19.41
2022-08-16T19:15:20.381Z,19.41
2022-08-16T19:17:47.432Z,19.39
2022-08-16T19:20:17.006Z,19.38
2022-08-16T19:25:46.409Z,19.40
2022-08-16T19:28:44.242Z,19.39
2022-08-16T19:31:06.428Z,19.40
2022-08-16T19:33:33.158Z,19.39
2022-08-16T19:36:00.353Z,19.37
2022-08-16T19:38:27.229Z,19.33
2022-08-16T19:40:54.046Z,19.31
2022-08-16T19:43:22.109Z,19.29
2022-08-16T19:45:49.575Z,19.26
2022-08-16T19:48:16.342Z,19.22
2022-08-16T19:50:43.147Z,19.18
2022-08-16T19:53:18.566Z,19.15
2022-08-16T19:55:47.421Z,19.11
2022-08-16T19:58:18.534Z,19.07
2022-08-16T20:00:45.723Z,19.01
2022-08-16T20:03:20.205Z,19.00
2022-08-16T20:05:48.533Z,18.99
2022-08-16T20:08:16.693Z,18.99
2022-08-16T20:10:47.763Z,18.99
2022-08-16T20:13:20.745Z,18.98
2022-08-16T20:15:49.310Z,18.97
2022-08-16T20:18:24.371Z,18.97
2022-08-16T20:20:52.762Z,18.99
2022-08-16T20:23:24.596Z,18.96
2022-08-16T20:25:55.962Z,18.94
2022-08-16T20:28:45.061Z,18.92
2022-08-16T20:31:11.585Z,18.91
2022-08-16T20:33:38.370Z,18.86
2022-08-16T20:36:05.187Z,18.82
2022-08-16T20:38:31.911Z,18.79
2022-08-16T20:40:58.626Z,18.76
2022-08-16T20:43:25.358Z,18.71
2022-08-16T20:45:52.346Z,18.64
2022-08-16T20:48:19.020Z,18.63
2022-08-16T20:50:45.826Z,18.59
2022-08-16T20:53:12.489Z,18.59
2022-08-16T20:55:40.460Z,18.57
2022-08-16T20:58:07.619Z,18.54
2022-08-16T21:00:34.417Z,18.51
2022-08-16T21:03:06.688Z,18.49
2022-08-16T21:05:34.285Z,18.46
2022-08-16T21:08:01.164Z,18.40
2022-08-16T21:10:28.163Z,18.38
2022-08-16T21:12:57.939Z,18.34
2022-08-16T21:15:26.521Z,18.32
2022-08-16T21:17:53.877Z,18.28
2022-08-16T21:20:22.862Z,18.27
2022-08-16T21:23:02.048Z,18.26
2022-08-16T21:25:29.900Z,18.23
2022-08-16T21:28:36.882Z,18.20
2022-08-16T21:30:44.780Z,18.17
2022-08-16T21:33:16.094Z,18.14
2022-08-16T21:35:45.369Z,18.13
2022-08-16T21:38:28.742Z,18.09
2022-08-16T21:40:58.406Z,18.05
2022-08-16T21:43:25.583Z,18.01
2022-08-16T21:45:54.164Z,17.96
2022-08-16T21:48:33.590Z,17.90
2022-08-16T21:51:11.616Z,17.85
2022-08-16T21:53:38.840Z,17.82
2022-08-16T21:56:06.357Z,17.77
2022-08-16T21:58:33.394Z,17.74
2022-08-16T22:01:01.099Z,17.72
2022-08-16T22:03:28.011Z,17.66
2022-08-16T22:06:12.326Z,17.65
2022-08-16T22:08:49.588Z,17.63
2022-08-16T22:11:22.580Z,17.59
2022-08-16T22:13:57.341Z,17.56
2022-08-16T22:16:31.591Z,17.53
2022-08-16T22:18:58.995Z,17.51
2022-08-16T22:21:26.316Z,17.49
2022-08-16T22:23:57.776Z,17.47
2022-08-16T22:26:31.705Z,17.42
2022-08-16T22:29:01.119Z,17.41
2022-08-16T22:31:28.560Z,17.40
2022-08-16T22:33:56.788Z,17.33
2022-08-16T22:36:27.898Z,17.31
2022-08-16T22:39:00.126Z,17.29
2022-08-16T22:41:28.441Z,17.28
2022-08-16T22:43:56.359Z,17.25
2022-08-16T22:46:23.610Z,17.19
2022-08-16T22:48:50.988Z,17.15
2022-08-16T22:51:23.543Z,17.11
2022-08-16T22:53:50.894Z,17.07
2022-08-16T22:56:17.961Z,17.03
2022-08-16T22:58:46.391Z,16.98
2022-08-16T23:01:14.613Z,16.96
2022-08-16T23:03:42.729Z,16.92
2022-08-16T23:06:10.637Z,16.89
2022-08-16T23:08:40.862Z,16.88
2022-08-16T23:11:10.771Z,16.85
2022-08-16T23:13:38.354Z,16.81
2022-08-16T23:16:23.240Z,16.79
2022-08-16T23:18:53.475Z,16.76
2022-08-16T23:21:21.024Z,16.74
2022-08-16T23:23:49.116Z,16.72
2022-08-16T23:26:44.500Z,16.72
2022-08-16T23:29:04.790Z,16.72
2022-08-16T23:31:32.699Z,16.69
2022-08-16T23:34:00.376Z,16.63
2022-08-16T23:36:27.089Z,16.57
2022-08-16T23:38:54.055Z,16.55
2022-08-16T23:41:20.762Z,16.55
2022-08-16T23:43:47.507Z,16.55
2022-08-16T23:46:18.294Z,16.55
2022-08-16T23:50:01.897Z,16.53
2022-08-16T23:51:32.662Z,16.48
2022-08-16T23:54:00.118Z,16.47
2022-08-16T23:56:26.815Z,16.46
2022-08-16T23:59:02.657Z,16.41
